Time;durP1;ratioP1;P1;durP2;ratioP2;P2;SDS_P1;SDS_P2;PMS_P1;PMS_P2;Temp;Humidity;BMP_temperature;BMP_pressure;BME280_temperature;BME280_humidity;BME280_pressure;Samples;Min_cycle;Max_cycle;Signal;HPM_P1;HPM_P2
2023/08/24 00:00:41;;;;;;;7.03;3.90;;;16.40;99.90;;;;;;5046972;28;20037;-71
2023/08/24 00:03:08;;;;;;;6.45;4.10;;;16.40;99.90;;;;;;5046226;28;20073;-73
2023/08/24 00:05:38;;;;;;;6.38;3.70;;;16.50;99.90;;;;;;5046972;28;20040;-71
2023/08/24 00:08:05;;;;;;;5.47;3.28;;;16.40;99.90;;;;;;5028849;28;20530;-71
2023/08/24 00:10:30;;;;;;;4.70;3.40;;;16.40;99.90;;;;;;5028232;28;20148;-71
2023/08/24 00:12:56;;;;;;;5.15;3.03;;;16.40;99.90;;;;;;5046329;28;20124;-71
2023/08/24 00:15:22;;;;;;;7.10;3.40;;;16.40;99.90;;;;;;5028448;28;20145;-71
2023/08/24 00:17:47;;;;;;;5.85;3.00;;;16.30;99.90;;;;;;5045787;28;20483;-73
2023/08/24 00:20:13;;;;;;;5.43;3.90;;;16.40;99.90;;;;;;5046426;28;20391;-71
2023/08/24 00:22:39;;;;;;;4.35;3.03;;;16.40;99.90;;;;;;5046466;28;20370;-73
2023/08/24 00:25:06;;;;;;;4.75;3.33;;;16.40;99.90;;;;;;5046192;28;20025;-71
2023/08/24 00:27:32;;;;;;;5.05;2.70;;;16.40;99.90;;;;;;5046366;28;20041;-71
2023/08/24 00:29:58;;;;;;;7.70;3.58;;;16.40;99.90;;;;;;5046438;28;20401;-72
2023/08/24 00:32:23;;;;;;;4.68;3.40;;;16.40;99.90;;;;;;5045131;28;20040;-72
2023/08/24 00:34:49;;;;;;;6.95;3.60;;;16.40;99.90;;;;;;5045986;28;20069;-71
2023/08/24 00:37:15;;;;;;;6.05;3.25;;;16.40;99.90;;;;;;5046213;28;20575;-72
2023/08/24 00:39:41;;;;;;;6.43;4.03;;;16.40;99.90;;;;;;5045832;28;20131;-71
2023/08/24 00:42:07;;;;;;;6.30;3.65;;;16.40;99.90;;;;;;5028193;28;20121;-73
2023/08/24 00:44:33;;;;;;;3.97;3.33;;;16.30;99.90;;;;;;5046089;28;20041;-71
2023/08/24 00:46:59;;;;;;;7.32;3.78;;;16.30;99.90;;;;;;5044679;28;20072;-71
2023/08/24 00:49:26;;;;;;;5.60;3.08;;;16.30;99.90;;;;;;5045822;28;20079;-74
2023/08/24 00:51:51;;;;;;;4.80;2.95;;;16.30;99.90;;;;;;5028082;28;20048;-71
2023/08/24 00:54:18;;;;;;;5.13;3.72;;;16.30;99.90;;;;;;5045212;28;20032;-72
2023/08/24 00:56:44;;;;;;;4.50;3.13;;;16.20;99.90;;;;;;5046076;28;20484;-71
2023/08/24 00:59:10;;;;;;;6.55;3.92;;;16.20;99.90;;;;;;5027380;28;20123;-71
2023/08/24 01:01:35;;;;;;;7.88;4.13;;;16.20;99.90;;;;;;5045557;28;20452;-72
2023/08/24 01:04:02;;;;;;;7.97;4.30;;;16.20;99.90;;;;;;5027764;28;20106;-72
2023/08/24 01:06:28;;;;;;;6.72;3.85;;;16.20;99.90;;;;;;5010728;28;20474;-71
2023/08/24 01:08:54;;;;;;;6.68;4.30;;;16.20;99.90;;;;;;5045675;28;20504;-71
2023/08/24 01:11:26;;;;;;;7.00;4.28;;;16.30;99.90;;;;;;5027564;28;20555;-71
2023/08/24 01:14:06;;;;;;;5.90;3.97;;;16.40;99.90;;;;;;5099961;22;20041;-73
2023/08/24 01:16:36;;;;;;;7.18;4.57;;;16.40;99.90;;;;;;5025040;28;20072;-72
2023/08/24 01:19:06;;;;;;;6.80;4.13;;;16.40;99.90;;;;;;5032692;28;20103;-73
2023/08/24 01:21:32;;;;;;;8.30;3.95;;;16.40;99.90;;;;;;5045534;28;20047;-71
2023/08/24 01:24:21;;;;;;;10.63;4.38;;;16.40;99.90;;;;;;5043260;28;20053;-71
2023/08/24 01:26:48;;;;;;;5.85;3.90;;;16.40;99.90;;;;;;5045251;28;20503;-71
2023/08/24 01:29:15;;;;;;;6.63;3.85;;;16.40;99.90;;;;;;5027352;28;20041;-72
2023/08/24 01:31:41;;;;;;;7.78;4.32;;;16.40;99.90;;;;;;5044933;28;20055;-70
2023/08/24 01:34:06;;;;;;;13.27;6.00;;;16.40;99.90;;;;;;5045654;28;20135;-71
2023/08/24 01:36:32;;;;;;;10.63;4.80;;;16.50;99.90;;;;;;5044321;28;20037;-73
2023/08/24 01:39:28;;;;;;;13.40;4.05;;;16.50;99.90;;;;;;5045339;28;20391;-73
2023/08/24 01:42:00;;;;;;;7.38;3.70;;;16.50;99.90;;;;;;5039416;28;20049;-73
2023/08/24 01:44:29;;;;;;;8.98;4.65;;;16.50;99.90;;;;;;5047795;28;20045;-73
2023/08/24 01:46:56;;;;;;;9.68;5.45;;;16.50;99.90;;;;;;5057909;28;20055;-73
2023/08/24 01:49:23;;;;;;;8.70;3.75;;;16.60;99.90;;;;;;5051455;28;20052;-70
2023/08/24 01:51:50;;;;;;;11.13;3.95;;;16.60;99.90;;;;;;5026636;28;20048;-72
2023/08/24 01:54:16;;;;;;;8.45;4.13;;;16.60;99.90;;;;;;5044716;28;20091;-73
2023/08/24 01:56:41;;;;;;;7.00;4.18;;;16.60;99.90;;;;;;5044515;28;20072;-71
2023/08/24 01:59:08;;;;;;;9.25;3.80;;;16.60;99.90;;;;;;5045073;28;20037;-73
2023/08/24 02:01:33;;;;;;;9.65;4.78;;;16.60;99.90;;;;;;5044552;28;20049;-72
2023/08/24 02:03:59;;;;;;;5.57;3.50;;;16.60;99.90;;;;;;5044373;28;20403;-72
2023/08/24 02:06:26;;;;;;;8.50;3.97;;;16.60;99.90;;;;;;5044494;28;20044;-72
2023/08/24 02:08:51;;;;;;;8.57;3.80;;;16.60;99.90;;;;;;5044681;28;20044;-70
2023/08/24 02:11:17;;;;;;;5.18;3.50;;;16.60;99.90;;;;;;5026085;28;20120;-73
2023/08/24 02:13:42;;;;;;;6.70;3.38;;;16.60;99.90;;;;;;5044086;28;20075;-71
2023/08/24 02:16:08;;;;;;;5.93;3.75;;;16.60;99.90;;;;;;5043450;28;20045;-74
2023/08/24 02:18:34;;;;;;;9.77;3.83;;;16.60;99.90;;;;;;5010792;28;20041;-72
2023/08/24 02:21:00;;;;;;;8.32;4.00;;;16.60;99.90;;;;;;5044027;28;20040;-71
2023/08/24 02:23:25;;;;;;;7.88;3.28;;;16.60;99.90;;;;;;5026236;28;20518;-73
2023/08/24 02:25:51;;;;;;;9.27;4.43;;;16.50;99.90;;;;;;5044299;28;20505;-71
2023/08/24 02:28:17;;;;;;;6.35;3.97;;;16.60;99.90;;;;;;5025120;28;20041;-72
2023/08/24 02:30:42;;;;;;;7.57;4.45;;;16.50;99.90;;;;;;5026523;28;20372;-71
2023/08/24 02:33:08;;;;;;;8.45;4.85;;;16.50;99.90;;;;;;5041482;28;20435;-73
2023/08/24 02:35:34;;;;;;;8.18;4.63;;;16.60;99.90;;;;;;5044450;28;20033;-72
2023/08/24 02:37:59;;;;;;;7.13;4.70;;;16.50;99.90;;;;;;5026288;28;20052;-71
2023/08/24 02:40:25;;;;;;;8.60;5.00;;;16.50;99.90;;;;;;5041895;28;20045;-73
2023/08/24 02:42:50;;;;;;;7.60;4.07;;;16.50;99.90;;;;;;5044617;28;20196;-71
2023/08/24 02:45:16;;;;;;;7.13;4.78;;;16.50;99.90;;;;;;5025848;28;20481;-71
2023/08/24 02:47:41;;;;;;;7.72;4.05;;;16.50;99.90;;;;;;5042450;28;20095;-72
2023/08/24 02:50:07;;;;;;;7.75;4.15;;;16.50;99.90;;;;;;5044437;28;20052;-71
2023/08/24 02:52:33;;;;;;;10.52;4.82;;;16.50;99.90;;;;;;5044194;28;20102;-73
2023/08/24 02:54:59;;;;;;;9.80;5.05;;;16.40;99.90;;;;;;5026040;28;20132;-71
2023/08/24 02:57:25;;;;;;;8.50;5.05;;;16.40;99.90;;;;;;5042307;28;20052;-72
2023/08/24 02:59:50;;;;;;;9.57;4.78;;;16.40;99.90;;;;;;5042736;28;20121;-71
2023/08/24 03:02:16;;;;;;;10.95;5.47;;;16.30;99.90;;;;;;5042907;28;20850;-72
2023/08/24 03:04:41;;;;;;;8.38;5.03;;;16.30;99.90;;;;;;5026322;28;20498;-73
2023/08/24 03:07:10;;;;;;;7.03;4.53;;;16.30;99.90;;;;;;5043278;28;20131;-71
2023/08/24 03:09:35;;;;;;;9.65;4.68;;;16.30;99.90;;;;;;5043489;28;20041;-71
2023/08/24 03:12:01;;;;;;;7.82;3.55;;;16.30;99.90;;;;;;5044137;28;20509;-72
2023/08/24 03:14:27;;;;;;;9.00;4.60;;;16.30;99.90;;;;;;5043302;28;20087;-72
2023/08/24 03:16:52;;;;;;;7.85;5.20;;;16.20;99.90;;;;;;5042713;28;20041;-72
2023/08/24 03:19:18;;;;;;;10.02;5.45;;;16.20;99.90;;;;;;5043758;28;20402;-70
2023/08/24 03:21:44;;;;;;;7.13;4.32;;;16.20;99.90;;;;;;5043495;28;20034;-72
2023/08/24 03:24:10;;;;;;;9.23;5.25;;;16.20;99.90;;;;;;5043503;28;20533;-72
2023/08/24 03:26:36;;;;;;;7.07;4.03;;;16.20;99.90;;;;;;5042916;28;20041;-72
2023/08/24 03:29:02;;;;;;;8.40;4.07;;;16.20;99.90;;;;;;5023786;28;20044;-71
2023/08/24 03:31:28;;;;;;;8.68;4.60;;;16.20;99.90;;;;;;5022736;28;20129;-73
2023/08/24 03:33:53;;;;;;;8.35;5.18;;;16.30;99.90;;;;;;5022405;28;20042;-71
2023/08/24 03:36:19;;;;;;;6.40;4.50;;;16.20;99.90;;;;;;5005861;28;20100;-71
2023/08/24 03:38:48;;;;;;;7.75;4.20;;;16.30;99.90;;;;;;5023381;28;20037;-72
2023/08/24 03:41:13;;;;;;;7.75;5.15;;;16.30;99.90;;;;;;5017946;28;20416;-72
2023/08/24 03:43:39;;;;;;;8.35;4.32;;;16.20;99.90;;;;;;5043673;28;20178;-71
2023/08/24 03:46:05;;;;;;;7.95;4.40;;;16.20;99.90;;;;;;5043226;28;20074;-71
2023/08/24 03:48:32;;;;;;;9.75;5.32;;;16.20;99.90;;;;;;5043413;28;20123;-72
2023/08/24 03:50:58;;;;;;;8.88;5.70;;;16.20;99.90;;;;;;5042126;28;20049;-71
2023/08/24 03:53:24;;;;;;;7.32;4.63;;;16.20;99.90;;;;;;5025122;28;20484;-71
2023/08/24 03:55:51;;;;;;;11.23;5.25;;;16.20;99.90;;;;;;5008790;28;20049;-73
2023/08/24 03:58:17;;;;;;;6.75;4.68;;;16.20;99.90;;;;;;5043793;28;20130;-72
2023/08/24 04:00:44;;;;;;;9.98;3.95;;;16.20;99.90;;;;;;5046478;28;20075;-71
2023/08/24 04:03:10;;;;;;;7.43;4.55;;;16.20;99.90;;;;;;5046718;28;20450;-73
2023/08/24 04:05:35;;;;;;;6.78;4.80;;;16.20;99.90;;;;;;5046628;28;20045;-72
2023/08/24 04:08:02;;;;;;;7.35;3.95;;;16.20;99.90;;;;;;5045345;28;20410;-72
2023/08/24 04:10:28;;;;;;;9.23;5.55;;;16.20;99.90;;;;;;5046433;28;20622;-71
2023/08/24 04:12:54;;;;;;;8.02;4.30;;;16.20;99.90;;;;;;5046671;28;20078;-72
2023/08/24 04:15:19;;;;;;;7.55;4.40;;;16.20;99.90;;;;;;5045376;28;20049;-72
2023/08/24 04:17:46;;;;;;;9.93;4.18;;;16.20;99.90;;;;;;5045458;28;20451;-71
2023/08/24 04:20:12;;;;;;;6.30;3.92;;;16.10;99.90;;;;;;5046577;28;20037;-73
2023/08/24 04:22:37;;;;;;;8.68;4.90;;;16.10;99.90;;;;;;5046937;28;20067;-74
2023/08/24 04:25:04;;;;;;;6.72;4.18;;;16.10;99.90;;;;;;5028685;28;20094;-71
2023/08/24 04:27:29;;;;;;;9.50;4.30;;;16.10;99.90;;;;;;5043855;28;20083;-73
2023/08/24 04:29:55;;;;;;;10.35;4.07;;;16.10;99.90;;;;;;5046193;28;20033;-71
2023/08/24 04:32:22;;;;;;;7.32;3.90;;;16.00;99.90;;;;;;5045435;28;20479;-73
2023/08/24 04:34:48;;;;;;;7.15;3.58;;;16.00;99.90;;;;;;5046743;28;20045;-72
2023/08/24 04:37:13;;;;;;;7.97;4.03;;;16.00;99.90;;;;;;5045458;28;20551;-71
2023/08/24 04:39:39;;;;;;;6.55;4.35;;;16.00;99.90;;;;;;5046543;28;20123;-72
2023/08/24 04:42:05;;;;;;;6.93;3.95;;;16.10;99.90;;;;;;5046392;28;20479;-71
2023/08/24 04:44:32;;;;;;;9.18;5.25;;;16.10;99.90;;;;;;5045473;28;20041;-72
2023/08/24 04:46:57;;;;;;;7.47;3.95;;;16.10;99.90;;;;;;5027804;28;20499;-71
2023/08/24 04:49:23;;;;;;;6.50;3.92;;;16.10;99.90;;;;;;5027677;28;20060;-71
2023/08/24 04:51:49;;;;;;;7.97;4.05;;;16.10;99.90;;;;;;5045766;28;20036;-72
2023/08/24 04:54:14;;;;;;;8.93;4.78;;;16.10;99.90;;;;;;5045825;28;20033;-72
2023/08/24 04:56:40;;;;;;;6.30;4.03;;;16.10;99.90;;;;;;5045545;28;20052;-72
2023/08/24 04:59:07;;;;;;;10.80;4.55;;;16.10;99.90;;;;;;5045292;28;20103;-72
2023/08/24 05:01:33;;;;;;;7.38;4.65;;;16.10;99.90;;;;;;5045383;28;20041;-71
2023/08/24 05:03:59;;;;;;;7.47;4.13;;;16.10;99.90;;;;;;5045778;28;20049;-72
2023/08/24 05:06:25;;;;;;;8.00;4.38;;;16.00;99.90;;;;;;5045495;28;20052;-71
2023/08/24 05:08:51;;;;;;;6.65;4.05;;;16.10;99.90;;;;;;5045906;28;20039;-72
2023/08/24 05:11:22;;;;;;;9.27;3.88;;;16.10;99.90;;;;;;5025859;28;20045;-71
2023/08/24 05:13:48;;;;;;;9.97;4.07;;;16.10;99.90;;;;;;5043514;28;20090;-70
2023/08/24 05:16:14;;;;;;;8.55;4.38;;;16.10;99.90;;;;;;5022098;28;21030;-72
2023/08/24 05:18:40;;;;;;;7.57;3.88;;;16.10;99.90;;;;;;5025915;28;20053;-73
2023/08/24 05:21:06;;;;;;;6.57;4.38;;;16.00;99.90;;;;;;5043996;28;20509;-71
2023/08/24 05:23:35;;;;;;;7.57;4.05;;;16.10;99.90;;;;;;5007600;28;20136;-72
2023/08/24 05:26:02;;;;;;;10.50;4.88;;;16.10;99.90;;;;;;5045287;28;20396;-72
2023/08/24 05:28:29;;;;;;;8.40;4.65;;;16.10;99.90;;;;;;5034941;28;20060;-71
2023/08/24 05:30:56;;;;;;;13.15;5.75;;;16.10;99.90;;;;;;5043121;28;20037;-71
2023/08/24 05:33:22;;;;;;;7.28;4.13;;;16.00;99.90;;;;;;5027185;28;20049;-73
2023/08/24 05:35:48;;;;;;;11.77;5.07;;;16.10;99.90;;;;;;5045599;28;20037;-71
2023/08/24 05:38:14;;;;;;;8.98;4.90;;;16.10;99.90;;;;;;5044420;28;20161;-73
2023/08/24 05:40:42;;;;;;;7.82;4.78;;;16.10;99.90;;;;;;5045140;28;20033;-71
2023/08/24 05:43:08;;;;;;;9.00;4.78;;;16.10;99.90;;;;;;5044875;28;20052;-73
2023/08/24 05:45:34;;;;;;;10.48;5.00;;;16.20;99.90;;;;;;5044402;28;20128;-72
2023/08/24 05:47:59;;;;;;;7.32;4.35;;;16.20;99.90;;;;;;5045142;28;20124;-71
2023/08/24 05:50:25;;;;;;;6.32;3.50;;;16.30;99.90;;;;;;5044779;28;20045;-71
2023/08/24 05:52:51;;;;;;;11.27;4.57;;;16.30;99.90;;;;;;5022999;28;20503;-72
2023/08/24 05:55:16;;;;;;;5.25;3.92;;;16.30;99.90;;;;;;5025405;28;20070;-71
2023/08/24 05:57:42;;;;;;;7.15;4.07;;;16.40;99.90;;;;;;5043247;28;20041;-74
2023/08/24 06:00:09;;;;;;;8.95;3.90;;;16.40;99.90;;;;;;5026260;28;20041;-76
2023/08/24 06:02:39;;;;;;;8.25;4.18;;;16.50;99.90;;;;;;5042632;28;20041;-71
2023/08/24 06:05:06;;;;;;;12.75;4.45;;;16.50;99.90;;;;;;5026029;28;20068;-71
2023/08/24 06:07:32;;;;;;;5.70;3.65;;;16.60;99.90;;;;;;5043379;28;20045;-72
2023/08/24 06:09:58;;;;;;;8.38;4.50;;;16.60;99.90;;;;;;5008640;28;20051;-70
2023/08/24 06:12:24;;;;;;;6.80;3.45;;;16.60;99.90;;;;;;5037246;28;20049;-71
2023/08/24 06:14:49;;;;;;;8.70;3.97;;;16.70;99.90;;;;;;5035792;28;20060;-70
2023/08/24 06:17:15;;;;;;;8.80;4.05;;;16.60;99.90;;;;;;5041171;28;20049;-73
2023/08/24 06:19:41;;;;;;;7.78;4.25;;;16.70;99.90;;;;;;5033781;28;20036;-71
2023/08/24 06:22:07;;;;;;;6.20;3.40;;;16.70;99.90;;;;;;5026792;28;20041;-71
2023/08/24 06:24:32;;;;;;;9.68;4.55;;;16.70;99.90;;;;;;5025470;28;20044;-73
2023/08/24 06:26:58;;;;;;;5.35;3.63;;;16.70;99.90;;;;;;5039309;28;20045;-72
2023/08/24 06:29:24;;;;;;;6.35;4.38;;;16.80;99.90;;;;;;5035085;28;20669;-77
2023/08/24 06:31:49;;;;;;;8.85;4.35;;;16.80;99.90;;;;;;5044966;28;20033;-70
2023/08/24 06:34:15;;;;;;;6.32;3.28;;;16.80;99.90;;;;;;5029826;28;20036;-71
2023/08/24 06:36:40;;;;;;;8.23;3.90;;;16.80;99.90;;;;;;5042933;28;20040;-72
2023/08/24 06:39:06;;;;;;;7.68;4.55;;;16.90;99.90;;;;;;5044485;28;20162;-71
2023/08/24 06:41:35;;;;;;;5.68;3.85;;;16.90;99.90;;;;;;5043325;28;20044;-71
2023/08/24 06:44:02;;;;;;;7.65;3.60;;;17.00;99.90;;;;;;5025560;28;20047;-70
2023/08/24 06:46:28;;;;;;;6.93;3.88;;;17.00;99.90;;;;;;5056660;28;20124;-70
2023/08/24 06:48:54;;;;;;;5.25;3.97;;;17.00;99.90;;;;;;5043914;28;20414;-71
2023/08/24 06:51:20;;;;;;;5.45;3.35;;;17.10;99.90;;;;;;5043638;28;20037;-70
2023/08/24 06:53:48;;;;;;;5.78;3.80;;;17.10;99.90;;;;;;5043800;28;20109;-73
2023/08/24 06:56:14;;;;;;;4.75;3.03;;;17.20;99.90;;;;;;5025552;28;20037;-74
2023/08/24 06:58:40;;;;;;;5.60;3.55;;;17.20;99.90;;;;;;5041963;28;20084;-70
2023/08/24 07:01:07;;;;;;;7.47;3.75;;;17.20;99.90;;;;;;5038196;28;20061;-71
2023/08/24 07:03:33;;;;;;;4.68;3.25;;;17.30;99.90;;;;;;5035653;28;20072;-71
2023/08/24 07:05:59;;;;;;;5.47;3.05;;;17.30;99.90;;;;;;5036762;28;20545;-71
2023/08/24 07:08:24;;;;;;;5.88;3.15;;;17.30;99.90;;;;;;5036483;28;20063;-71
2023/08/24 07:10:50;;;;;;;7.50;3.90;;;17.40;99.90;;;;;;5053567;28;20041;-73
2023/08/24 07:13:15;;;;;;;7.03;2.90;;;17.40;99.90;;;;;;5050808;28;20041;-70
2023/08/24 07:15:42;;;;;;;6.22;2.97;;;17.50;99.90;;;;;;5020280;28;20637;-71
2023/08/24 07:18:08;;;;;;;5.82;2.80;;;17.50;99.90;;;;;;5048642;28;20525;-74
2023/08/24 07:20:34;;;;;;;3.80;2.90;;;17.60;99.90;;;;;;5045848;28;20049;-69
2023/08/24 07:23:00;;;;;;;4.90;2.63;;;17.70;99.90;;;;;;5047927;28;20499;-69
2023/08/24 07:25:27;;;;;;;5.18;2.63;;;17.70;99.90;;;;;;5024974;28;20118;-70
2023/08/24 07:27:58;;;;;;;6.93;3.92;;;17.70;99.90;;;;;;5031778;28;20076;-70
2023/08/24 07:30:26;;;;;;;9.70;2.67;;;17.80;99.90;;;;;;5024080;28;20052;-70
2023/08/24 07:32:52;;;;;;;6.28;2.53;;;17.80;99.90;;;;;;5043525;28;20079;-70
2023/08/24 07:35:17;;;;;;;4.45;1.95;;;17.80;99.90;;;;;;5062511;28;20604;-72
2023/08/24 07:37:43;;;;;;;4.88;2.95;;;17.90;99.90;;;;;;5067554;28;20116;-70
2023/08/24 07:40:10;;;;;;;3.95;2.85;;;17.90;99.90;;;;;;5048956;28;20044;-72
2023/08/24 07:42:46;;;;;;;5.47;2.80;;;18.00;99.90;;;;;;5048351;28;20052;-71
2023/08/24 07:45:13;;;;;;;6.47;3.20;;;18.00;99.90;;;;;;5021896;28;20037;-70
2023/08/24 07:47:39;;;;;;;7.35;2.88;;;18.10;99.90;;;;;;5019490;28;20399;-72
2023/08/24 07:50:06;;;;;;;3.90;3.00;;;18.10;99.90;;;;;;5038566;28;20047;-70
2023/08/24 07:52:32;;;;;;;4.55;2.33;;;18.20;99.90;;;;;;5044302;28;20047;-71
2023/08/24 07:54:59;;;;;;;4.32;2.72;;;18.20;99.90;;;;;;5053564;28;20040;-70
2023/08/24 07:57:26;;;;;;;4.43;2.47;;;18.30;99.90;;;;;;5038694;28;20088;-70
2023/08/24 07:59:52;;;;;;;7.22;2.53;;;18.30;99.90;;;;;;5044906;28;20121;-71
2023/08/24 08:02:18;;;;;;;2.00;1.80;;;18.30;99.90;;;;;;5045245;28;20080;-70
2023/08/24 08:04:44;;;;;;;4.85;2.47;;;18.30;99.90;;;;;;5046214;28;20052;-70
2023/08/24 08:07:09;;;;;;;3.60;1.98;;;18.40;99.90;;;;;;5045889;28;20045;-70
2023/08/24 08:09:36;;;;;;;4.32;2.47;;;18.40;99.90;;;;;;5034681;28;20535;-71
2023/08/24 08:12:03;;;;;;;3.08;2.22;;;18.50;99.90;;;;;;5046225;28;20656;-71
2023/08/24 08:14:29;;;;;;;2.58;2.28;;;18.60;99.90;;;;;;5044136;28;20111;-74
2023/08/24 08:16:55;;;;;;;5.22;2.20;;;18.60;99.90;;;;;;5024215;28;20073;-74
2023/08/24 08:19:21;;;;;;;3.90;2.50;;;18.70;99.90;;;;;;5017718;28;20049;-72
2023/08/24 08:21:47;;;;;;;8.27;2.72;;;18.80;99.90;;;;;;5045769;28;20403;-70
2023/08/24 08:24:13;;;;;;;4.22;3.20;;;18.80;99.90;;;;;;5039950;28;20116;-72
2023/08/24 08:26:38;;;;;;;7.60;4.55;;;18.90;99.90;;;;;;5026728;28;20047;-71
2023/08/24 08:29:05;;;;;;;7.82;3.50;;;18.90;99.90;;;;;;5042178;28;20041;-73
2023/08/24 08:31:30;;;;;;;7.65;3.50;;;19.00;99.90;;;;;;5025995;28;20049;-73
2023/08/24 08:33:56;;;;;;;5.00;3.70;;;19.00;99.90;;;;;;5013528;28;20114;-74
2023/08/24 08:36:22;;;;;;;4.63;3.17;;;19.10;99.90;;;;;;5045200;28;20760;-71
2023/08/24 08:38:49;;;;;;;8.07;3.85;;;19.10;99.90;;;;;;5018784;28;20056;-71
2023/08/24 08:41:16;;;;;;;8.18;4.28;;;19.20;99.90;;;;;;5044895;28;20738;-72
2023/08/24 08:43:42;;;;;;;6.53;3.92;;;19.30;99.90;;;;;;5044931;28;20053;-73
2023/08/24 08:46:08;;;;;;;8.60;4.68;;;19.20;99.90;;;;;;5038469;28;20514;-74
2023/08/24 08:48:35;;;;;;;8.18;3.95;;;19.20;99.90;;;;;;5025262;28;20514;-71
2023/08/24 08:51:02;;;;;;;6.85;4.28;;;19.20;99.90;;;;;;5025225;28;20038;-72
2023/08/24 08:53:28;;;;;;;8.43;4.20;;;19.20;99.90;;;;;;5041543;28;20138;-71
2023/08/24 08:55:55;;;;;;;7.80;4.30;;;19.30;99.90;;;;;;5043732;28;20104;-71
2023/08/24 08:58:21;;;;;;;5.28;3.92;;;19.30;99.90;;;;;;5032072;28;20085;-74
2023/08/24 09:00:47;;;;;;;7.22;4.57;;;19.30;99.90;;;;;;5024982;28;20044;-70
2023/08/24 09:03:16;;;;;;;6.88;4.80;;;19.40;99.90;;;;;;5042059;28;20085;-71
2023/08/24 09:05:42;;;;;;;8.13;4.85;;;19.50;99.90;;;;;;5022160;28;20103;-72
2023/08/24 09:08:09;;;;;;;5.72;3.88;;;19.60;99.90;;;;;;5010459;28;20041;-74
2023/08/24 09:10:35;;;;;;;9.13;5.18;;;19.60;99.90;;;;;;5050532;28;20391;-72
2023/08/24 09:13:01;;;;;;;9.88;4.22;;;19.60;99.90;;;;;;5040461;28;20127;-71
2023/08/24 09:15:27;;;;;;;6.95;4.80;;;19.60;99.90;;;;;;5044253;28;20049;-70
2023/08/24 09:17:54;;;;;;;5.78;4.00;;;19.60;99.90;;;;;;5048026;28;20119;-70
2023/08/24 09:20:20;;;;;;;9.70;3.97;;;19.60;99.90;;;;;;5047119;28;20052;-70
2023/08/24 09:22:46;;;;;;;9.15;4.25;;;19.70;99.90;;;;;;5047288;28;20054;-73
2023/08/24 09:25:11;;;;;;;9.55;4.05;;;19.60;99.90;;;;;;5046365;28;20044;-71
2023/08/24 09:27:37;;;;;;;6.32;3.75;;;19.60;99.90;;;;;;5035014;28;20511;-69
2023/08/24 09:30:06;;;;;;;6.43;3.75;;;19.70;99.90;;;;;;5041306;28;20067;-73
2023/08/24 09:32:33;;;;;;;5.45;3.70;;;19.60;99.90;;;;;;5044239;28;20056;-69
2023/08/24 09:35:09;;;;;;;6.10;3.67;;;19.70;99.90;;;;;;5043766;28;20040;-73
2023/08/24 09:37:35;;;;;;;9.13;3.55;;;19.70;99.90;;;;;;5023658;28;20500;-72
2023/08/24 09:40:07;;;;;;;6.50;4.00;;;19.60;99.90;;;;;;5021381;28;20033;-70
2023/08/24 09:42:41;;;;;;;6.78;3.22;;;19.60;99.90;;;;;;5012389;28;20041;-71
2023/08/24 09:45:14;;;;;;;5.43;3.75;;;19.60;99.90;;;;;;5027427;28;20060;-73
2023/08/24 09:47:44;;;;;;;5.68;3.92;;;19.60;99.90;;;;;;5025807;28;20037;-70
2023/08/24 09:50:10;;;;;;;7.32;3.85;;;19.60;99.90;;;;;;5038524;28;20091;-71
2023/08/24 09:52:37;;;;;;;5.53;3.38;;;19.50;99.90;;;;;;5024630;28;20041;-72
2023/08/24 09:55:11;;;;;;;5.65;3.42;;;19.50;99.90;;;;;;5046747;28;20032;-71
2023/08/24 09:57:39;;;;;;;6.05;3.80;;;19.50;99.90;;;;;;5016387;28;20053;-71
2023/08/24 10:00:10;;;;;;;7.72;4.05;;;19.50;99.90;;;;;;5024729;28;20044;-73
2023/08/24 10:02:50;;;;;;;5.43;4.23;;;19.50;99.90;;;;;;5043931;28;21363;-72
2023/08/24 10:05:20;;;;;;;6.03;3.90;;;19.50;99.90;;;;;;5041492;28;20307;-71
2023/08/24 10:07:52;;;;;;;7.53;3.95;;;19.40;99.90;;;;;;5038008;28;20033;-71
2023/08/24 10:10:20;;;;;;;9.02;3.92;;;19.40;99.90;;;;;;5018623;28;20449;-69
2023/08/24 10:12:51;;;;;;;6.30;3.90;;;19.40;99.90;;;;;;5030307;28;20132;-75
2023/08/24 10:15:18;;;;;;;6.10;4.72;;;19.40;99.90;;;;;;5033018;28;20049;-71
2023/08/24 10:17:44;;;;;;;7.63;4.60;;;19.40;99.90;;;;;;5047942;28;20123;-72
2023/08/24 10:20:11;;;;;;;7.82;4.85;;;19.40;99.90;;;;;;5036812;28;20041;-74
2023/08/24 10:22:40;;;;;;;7.25;4.38;;;19.40;99.90;;;;;;5026543;28;20084;-73
2023/08/24 10:25:07;;;;;;;8.57;5.30;;;19.30;99.90;;;;;;5024929;28;20055;-71
2023/08/24 10:27:33;;;;;;;8.63;5.18;;;19.30;99.90;;;;;;5017350;28;20041;-73
2023/08/24 10:29:59;;;;;;;8.93;5.32;;;19.30;99.90;;;;;;5030254;28;20041;-71
2023/08/24 10:32:26;;;;;;;10.70;5.05;;;19.30;99.90;;;;;;5023734;28;20491;-73
2023/08/24 10:34:52;;;;;;;6.60;5.05;;;19.30;99.90;;;;;;5031993;28;20037;-71
2023/08/24 10:37:25;;;;;;;11.10;4.95;;;19.30;99.90;;;;;;5029247;28;20054;-72
2023/08/24 10:39:51;;;;;;;16.30;6.20;;;19.30;99.90;;;;;;5005803;28;20149;-73
2023/08/24 10:42:17;;;;;;;10.80;5.75;;;19.30;99.90;;;;;;4989880;28;20060;-71
2023/08/24 10:44:46;;;;;;;9.48;5.20;;;19.30;99.90;;;;;;5039395;28;20063;-72
2023/08/24 10:47:16;;;;;;;11.13;6.95;;;19.20;99.90;;;;;;5037546;28;20052;-72
2023/08/24 10:49:42;;;;;;;9.07;6.28;;;19.20;99.90;;;;;;5024320;28;20045;-73
2023/08/24 10:52:24;;;;;;;13.68;6.50;;;19.20;99.90;;;;;;5024646;28;20040;-71
2023/08/24 10:54:52;;;;;;;9.30;6.60;;;19.20;99.90;;;;;;5024124;28;20124;-71
2023/08/24 10:57:23;;;;;;;10.60;5.53;;;19.20;99.90;;;;;;5014894;28;20518;-70
2023/08/24 11:00:06;;;;;;;11.60;6.60;;;19.20;99.90;;;;;;5024424;28;20433;-71
2023/08/24 11:02:50;;;;;;;13.35;6.25;;;19.20;99.90;;;;;;5042480;28;20083;-71
2023/08/24 11:05:29;;;;;;;14.93;6.28;;;19.10;99.90;;;;;;5015055;28;20500;-72
2023/08/24 11:08:01;;;;;;;13.50;6.20;;;19.10;99.90;;;;;;5042113;28;20215;-70
2023/08/24 11:10:42;;;;;;;9.75;5.85;;;19.10;99.90;;;;;;5029189;28;20277;-72
2023/08/24 11:13:22;;;;;;;8.77;6.00;;;19.10;99.90;;;;;;5047196;28;20045;-71
2023/08/24 11:15:57;;;;;;;12.63;6.93;;;19.10;99.90;;;;;;5043979;28;20068;-73
2023/08/24 11:18:28;;;;;;;15.75;7.32;;;19.00;99.90;;;;;;5019799;28;20045;-74
2023/08/24 11:20:55;;;;;;;11.90;7.35;;;19.00;99.90;;;;;;5027858;28;20045;-72
2023/08/24 11:23:23;;;;;;;15.13;6.50;;;19.00;99.90;;;;;;5026538;28;20041;-72
2023/08/24 11:25:59;;;;;;;12.18;7.25;;;19.00;99.90;;;;;;5027371;28;20149;-72
2023/08/24 11:28:29;;;;;;;17.92;7.95;;;19.00;99.90;;;;;;5043441;28;20041;-72
2023/08/24 11:30:56;;;;;;;17.55;7.47;;;19.00;99.90;;;;;;5021383;28;20046;-72
2023/08/24 11:33:33;;;;;;;14.68;7.95;;;19.00;99.90;;;;;;5024767;28;20056;-72
2023/08/24 11:36:00;;;;;;;12.30;6.70;;;19.00;99.90;;;;;;5012215;28;20056;-72
2023/08/24 11:38:38;;;;;;;13.63;8.15;;;19.00;99.90;;;;;;5034693;28;20050;-72
2023/08/24 11:41:17;;;;;;;16.48;7.68;;;19.00;99.90;;;;;;5043082;28;20540;-73
2023/08/24 11:43:44;;;;;;;17.15;8.38;;;19.00;99.90;;;;;;5021764;28;20128;-71
2023/08/24 11:46:11;;;;;;;16.83;7.55;;;19.10;99.90;;;;;;5024581;28;20133;-73
2023/08/24 11:48:39;;;;;;;14.98;8.13;;;19.10;99.90;;;;;;5040662;28;20048;-72
2023/08/24 11:51:09;;;;;;;14.27;7.93;;;19.10;99.90;;;;;;5021812;28;20037;-72
2023/08/24 11:53:45;;;;;;;14.13;8.32;;;19.10;99.90;;;;;;5043320;28;20048;-73
2023/08/24 11:56:12;;;;;;;17.25;8.45;;;19.10;99.90;;;;;;5042880;28;20487;-73
2023/08/24 11:58:40;;;;;;;15.45;8.13;;;19.10;99.90;;;;;;5041242;28;20037;-73
2023/08/24 12:01:06;;;;;;;18.48;8.90;;;19.10;99.90;;;;;;5017394;28;20060;-72
2023/08/24 12:03:32;;;;;;;19.17;9.60;;;19.10;99.90;;;;;;5023544;28;20046;-73
2023/08/24 12:06:03;;;;;;;17.50;8.55;;;19.10;99.90;;;;;;5035767;28;20053;-72
2023/08/24 12:08:29;;;;;;;20.73;8.90;;;19.10;99.90;;;;;;5031438;28;20052;-73
2023/08/24 12:10:55;;;;;;;17.08;8.68;;;19.20;99.90;;;;;;5046458;28;20045;-73
2023/08/24 12:13:22;;;;;;;18.50;9.40;;;19.20;99.90;;;;;;5018348;28;20049;-73
2023/08/24 12:15:50;;;;;;;25.42;9.70;;;19.20;99.90;;;;;;5059877;28;20608;-73
2023/08/24 12:18:16;;;;;;;20.67;9.35;;;19.20;99.90;;;;;;5054718;28;20682;-73
2023/08/24 12:20:42;;;;;;;23.10;9.40;;;19.20;99.90;;;;;;5028217;28;20123;-73
2023/08/24 12:23:09;;;;;;;22.23;9.35;;;19.20;99.90;;;;;;5046243;28;20435;-74
2023/08/24 12:25:42;;;;;;;25.88;10.07;;;19.30;99.90;;;;;;5031031;28;20547;-73
2023/08/24 12:28:10;;;;;;;22.33;10.80;;;19.30;99.90;;;;;;5045171;28;20059;-75
2023/08/24 12:30:52;;;;;;;22.92;10.82;;;19.30;99.90;;;;;;5043001;28;20041;-73
2023/08/24 12:33:25;;;;;;;24.95;10.00;;;19.30;99.90;;;;;;5031351;28;20052;-73
2023/08/24 12:35:51;;;;;;;19.60;9.98;;;19.30;99.90;;;;;;5046442;28;20040;-74
2023/08/24 12:38:17;;;;;;;23.48;12.85;;;19.20;99.90;;;;;;5042796;28;20132;-74
2023/08/24 12:40:43;;;;;;;29.98;12.30;;;19.30;99.90;;;;;;5036360;28;20585;-74
2023/08/24 12:43:09;;;;;;;25.88;12.63;;;19.30;99.90;;;;;;5019580;28;20044;-74
2023/08/24 12:45:35;;;;;;;27.48;11.68;;;19.30;99.90;;;;;;5050497;28;20033;-74